Time;durP1;ratioP1;P1;durP2;ratioP2;P2;SDS_P1;SDS_P2;PMS_P1;PMS_P2;Temp;Humidity;BMP_temperature;BMP_pressure;BME280_temperature;BME280_humidity;BME280_pressure;Samples;Min_cycle;Max_cycle;Signal;HPM_P1;HPM_P2
2022/08/20 06:16:48;;;;;;;13.20;11.00;;;16.60;99.90;;;;;;5135567;27;20271;-84
2022/08/20 06:19:14;;;;;;;13.50;11.07;;;16.10;99.90;;;;;;5132027;28;20621;-84
2022/08/20 06:21:40;;;;;;;15.43;11.77;;;16.20;99.90;;;;;;5132137;28;20643;-83
2022/08/20 06:24:06;;;;;;;14.20;11.43;;;16.20;99.90;;;;;;5133439;27;20178;-83
2022/08/20 06:26:33;;;;;;;15.30;11.20;;;16.20;99.90;;;;;;5131799;28;20185;-82
2022/08/20 06:29:00;;;;;;;13.07;10.20;;;16.30;99.90;;;;;;5133240;27;20199;-83
2022/08/20 06:31:26;;;;;;;11.90;10.57;;;16.40;99.90;;;;;;5132143;28;20182;-82
2022/08/20 06:33:52;;;;;;;11.33;9.40;;;;;;;;;;5133569;27;20228;-83
2022/08/20 06:36:18;;;;;;;12.10;9.73;;;16.50;99.90;;;;;;5132838;28;20241;-83
2022/08/20 06:38:44;;;;;;;11.23;9.60;;;16.60;99.90;;;;;;5132717;28;20243;-82
2022/08/20 06:41:11;;;;;;;10.77;9.60;;;;;;;;;;5131862;28;20174;-82
2022/08/20 06:43:36;;;;;;;10.10;9.07;;;16.60;99.90;;;;;;5133421;28;20175;-83
2022/08/20 06:46:02;;;;;;;11.30;9.03;;;16.70;99.90;;;;;;5132925;27;20190;-83
2022/08/20 06:48:28;;;;;;;11.67;9.60;;;16.80;99.90;;;;;;5132102;28;20210;-83
2022/08/20 06:50:53;;;;;;;11.03;9.83;;;16.80;99.90;;;;;;5133751;27;20179;-82
2022/08/20 06:53:20;;;;;;;11.37;9.50;;;16.90;99.90;;;;;;5133341;27;20189;-83
2022/08/20 06:55:54;;;;;;;10.47;9.30;;;16.90;99.90;;;;;;5131349;28;20198;-84
2022/08/20 06:58:21;;;;;;;10.33;8.67;;;17.00;99.90;;;;;;5131165;28;20238;-82
2022/08/20 07:00:47;;;;;;;10.33;7.90;;;17.20;99.90;;;;;;5131179;28;20178;-82
2022/08/20 07:03:14;;;;;;;10.17;8.80;;;17.10;99.90;;;;;;5132812;27;20174;-82
2022/08/20 07:05:42;;;;;;;9.57;8.67;;;17.20;99.90;;;;;;5132349;27;20201;-83
2022/08/20 07:08:13;;;;;;;10.33;8.83;;;17.50;99.90;;;;;;5132712;28;20241;-83
2022/08/20 07:10:41;;;;;;;9.40;8.40;;;17.50;99.90;;;;;;5135877;27;20183;-84
2022/08/20 07:13:08;;;;;;;11.50;8.53;;;17.70;99.90;;;;;;5130436;28;20248;-83
2022/08/20 07:15:34;;;;;;;10.47;7.70;;;17.90;99.90;;;;;;5130655;28;20206;-83
2022/08/20 07:18:03;;;;;;;8.20;7.00;;;18.00;99.90;;;;;;5132143;27;20186;-82
2022/08/20 07:20:30;;;;;;;7.37;6.63;;;18.00;99.90;;;;;;5131374;28;20570;-83
2022/08/20 07:22:56;;;;;;;7.20;6.43;;;18.00;99.90;;;;;;5132106;27;20250;-82
2022/08/20 07:25:22;;;;;;;8.80;6.53;;;;;;;;;;5131697;27;20596;-85
2022/08/20 07:27:49;;;;;;;6.30;5.70;;;18.00;99.90;;;;;;5118039;28;20294;-82
2022/08/20 07:33:04;;;;;;;7.00;6.30;;;;;;;;;;5118261;28;20187;-84
2022/08/20 07:35:30;;;;;;;8.97;6.67;;;17.90;99.90;;;;;;5118157;28;20230;-82
2022/08/20 07:37:56;;;;;;;7.10;6.40;;;;;;;;;;5116204;28;20256;-82
2022/08/20 07:40:27;;;;;;;7.50;6.70;;;17.90;99.90;;;;;;5117533;28;20175;-82
2022/08/20 07:42:59;;;;;;;7.17;6.47;;;17.80;99.90;;;;;;5116343;28;20522;-83
2022/08/20 07:45:26;;;;;;;8.90;7.40;;;18.00;99.90;;;;;;5116225;28;20179;-82
2022/08/20 07:47:52;;;;;;;6.87;5.83;;;17.80;99.90;;;;;;5115866;28;20294;-84
2022/08/20 07:50:21;;;;;;;7.40;6.33;;;17.80;99.90;;;;;;5117785;28;20274;-80
2022/08/20 07:52:47;;;;;;;7.40;6.37;;;17.90;99.90;;;;;;5117267;28;20579;-82
2022/08/20 07:55:15;;;;;;;10.50;6.50;;;18.00;99.90;;;;;;5115931;28;20208;-82
2022/08/20 07:57:42;;;;;;;6.40;5.80;;;18.20;99.90;;;;;;5115658;28;20195;-84
2022/08/20 08:00:10;;;;;;;8.00;5.83;;;18.20;99.90;;;;;;5117508;28;20199;-82
2022/08/20 08:02:36;;;;;;;9.27;5.73;;;;;;;;;;5117597;28;20180;-84
2022/08/20 08:05:03;;;;;;;9.30;6.23;;;18.20;99.90;;;;;;5117255;28;20630;-81
2022/08/20 08:07:30;;;;;;;8.00;5.90;;;18.10;99.90;;;;;;5117450;28;20596;-83
2022/08/20 08:09:56;;;;;;;6.97;6.20;;;18.30;99.90;;;;;;5117705;28;20723;-82
2022/08/20 08:12:23;;;;;;;8.83;6.50;;;18.20;99.90;;;;;;5117420;27;20183;-82
2022/08/20 08:14:49;;;;;;;6.87;6.20;;;18.20;99.90;;;;;;5117561;28;20207;-82
2022/08/20 08:17:17;;;;;;;10.87;6.03;;;18.40;99.90;;;;;;5115906;28;20268;-83
2022/08/20 08:19:47;;;;;;;10.13;6.43;;;18.30;99.90;;;;;;5116050;28;20224;-82
2022/08/20 08:22:16;;;;;;;7.67;6.13;;;18.30;99.90;;;;;;5115892;28;20172;-83
2022/08/20 08:24:44;;;;;;;6.80;6.10;;;18.40;99.90;;;;;;5115723;28;20180;-82
2022/08/20 08:27:10;;;;;;;6.50;5.80;;;18.70;99.90;;;;;;5115549;28;20246;-82
2022/08/20 08:29:36;;;;;;;8.00;6.33;;;18.50;99.90;;;;;;5115909;28;20587;-82
2022/08/20 08:32:03;;;;;;;7.70;6.20;;;18.50;99.90;;;;;;5115861;28;20172;-82
2022/08/20 08:34:31;;;;;;;7.17;6.47;;;18.70;99.90;;;;;;5116918;28;20173;-82
2022/08/20 08:36:57;;;;;;;6.90;5.90;;;;;;;;;;5115727;28;20276;-82
2022/08/20 08:39:24;;;;;;;7.77;6.37;;;18.40;99.90;;;;;;5115835;28;20266;-82
2022/08/20 08:41:51;;;;;;;6.77;5.43;;;18.40;99.90;;;;;;5115231;28;20186;-83
2022/08/20 08:44:26;;;;;;;6.57;5.97;;;18.50;99.90;;;;;;5116714;27;20251;-84
2022/08/20 08:47:12;;;;;;;7.40;6.30;;;18.70;99.90;;;;;;5116649;28;20157;-83
2022/08/20 08:49:38;;;;;;;7.27;6.20;;;18.60;99.90;;;;;;5117011;28;20172;-82
2022/08/20 08:52:11;;;;;;;6.67;6.00;;;18.50;99.90;;;;;;5115378;28;20236;-83
2022/08/20 08:54:43;;;;;;;7.07;6.37;;;18.50;99.90;;;;;;5116562;28;20179;-83
2022/08/20 08:57:09;;;;;;;6.87;6.17;;;18.60;99.90;;;;;;5116252;28;20172;-82
2022/08/20 08:59:35;;;;;;;8.23;6.40;;;18.50;99.90;;;;;;5115077;28;20182;-82
2022/08/20 09:02:01;;;;;;;6.80;6.10;;;;;;;;;;5116113;28;20176;-82
2022/08/20 09:04:36;;;;;;;5.77;5.17;;;18.70;99.90;;;;;;5116600;28;20172;-83
2022/08/20 09:07:06;;;;;;;7.13;5.40;;;18.70;99.90;;;;;;5116627;28;20255;-84
2022/08/20 09:09:35;;;;;;;5.50;5.00;;;18.90;99.90;;;;;;5116015;28;20172;-84
2022/08/20 09:12:07;;;;;;;7.20;5.90;;;18.80;99.90;;;;;;5114921;28;20287;-82
2022/08/20 09:14:33;;;;;;;6.47;5.53;;;19.00;99.90;;;;;;5116550;28;20177;-82
2022/08/20 09:16:59;;;;;;;6.10;5.50;;;;;;;;;;5115058;28;20542;-83
2022/08/20 09:19:25;;;;;;;6.70;6.10;;;19.10;99.90;;;;;;5115589;28;20178;-82
2022/08/20 09:21:51;;;;;;;6.13;5.53;;;18.90;99.90;;;;;;5117299;28;20168;-83
2022/08/20 09:24:17;;;;;;;7.20;6.50;;;18.80;99.90;;;;;;5116802;28;20200;-84
2022/08/20 09:26:43;;;;;;;6.47;5.77;;;18.80;99.90;;;;;;5115427;28;20194;-83
2022/08/20 09:29:09;;;;;;;6.10;5.50;;;;;;;;;;5116695;28;20270;-82
2022/08/20 09:31:35;;;;;;;5.40;4.90;;;19.30;99.90;;;;;;5115889;28;20189;-83
2022/08/20 09:34:01;;;;;;;6.60;5.47;;;19.60;99.90;;;;;;5116396;28;20180;-83
2022/08/20 09:36:27;;;;;;;5.03;4.53;;;;;;;;;;5116207;28;20202;-83
2022/08/20 09:38:53;;;;;;;5.20;4.70;;;20.60;99.90;;;;;;5114831;28;20198;-84
2022/08/20 09:41:20;;;;;;;4.83;4.43;;;20.70;99.90;;;;;;5115972;28;20198;-83
2022/08/20 09:43:45;;;;;;;6.83;4.70;;;20.80;99.90;;;;;;5114580;28;20178;-81
2022/08/20 09:46:11;;;;;;;4.80;4.30;;;21.00;99.90;;;;;;5114761;28;20728;-84
2022/08/20 09:48:37;;;;;;;5.13;4.63;;;21.10;99.90;;;;;;5114349;28;20260;-84
2022/08/20 09:51:03;;;;;;;5.30;4.80;;;21.20;99.90;;;;;;5115870;28;20207;-82
2022/08/20 09:53:30;;;;;;;4.60;4.20;;;21.10;99.90;;;;;;5115607;27;20252;-83
2022/08/20 09:55:57;;;;;;;6.00;4.57;;;21.00;99.90;;;;;;5115298;28;20209;-83
2022/08/20 09:58:32;;;;;;;4.63;4.23;;;21.00;99.90;;;;;;5113940;28;20234;-83
2022/08/20 10:01:05;;;;;;;5.93;4.83;;;21.00;99.90;;;;;;5115409;28;20670;-82
2022/08/20 10:03:31;;;;;;;5.13;4.30;;;20.90;99.90;;;;;;5114463;28;20183;-83
2022/08/20 10:05:56;;;;;;;5.50;3.90;;;21.00;99.90;;;;;;5115901;28;20175;-82
2022/08/20 10:08:22;;;;;;;3.90;3.60;;;20.90;99.90;;;;;;5114900;28;20196;-83
2022/08/20 10:10:48;;;;;;;3.40;3.10;;;20.90;99.90;;;;;;5114299;28;20228;-82
2022/08/20 10:13:13;;;;;;;5.10;3.57;;;20.80;99.90;;;;;;5115314;28;20540;-83
2022/08/20 10:15:39;;;;;;;3.57;3.17;;;20.80;99.90;;;;;;5113611;28;20302;-84
2022/08/20 10:18:06;;;;;;;3.17;2.87;;;21.30;99.90;;;;;;5116876;28;20230;-83
2022/08/20 10:20:34;;;;;;;3.80;3.10;;;21.40;99.90;;;;;;5113939;28;20182;-83
2022/08/20 10:23:00;;;;;;;4.57;3.00;;;21.30;99.90;;;;;;5113889;28;20186;-82
2022/08/20 10:25:27;;;;;;;3.47;3.17;;;21.10;99.90;;;;;;5114346;28;20182;-82
2022/08/20 10:27:53;;;;;;;3.03;2.70;;;20.80;99.90;;;;;;5114085;28;20266;-83
2022/08/20 10:30:19;;;;;;;3.10;2.80;;;20.70;99.90;;;;;;5114227;28;20237;-83
2022/08/20 10:32:45;;;;;;;6.37;2.80;;;20.60;99.90;;;;;;5114076;28;20567;-84
2022/08/20 10:35:11;;;;;;;3.77;2.90;;;20.60;99.90;;;;;;5113632;28;20202;-83
2022/08/20 10:37:37;;;;;;;3.40;2.77;;;20.50;99.90;;;;;;5113796;28;20203;-82
2022/08/20 10:40:03;;;;;;;5.63;2.67;;;20.50;99.90;;;;;;5115421;28;20172;-82
2022/08/20 10:42:29;;;;;;;3.00;2.43;;;20.70;99.90;;;;;;5113895;28;20671;-85
2022/08/20 10:44:55;;;;;;;3.70;2.80;;;20.90;99.90;;;;;;5114202;28;20180;-83
2022/08/20 10:47:20;;;;;;;2.87;2.57;;;20.70;99.90;;;;;;5114980;28;20199;-82
2022/08/20 10:49:48;;;;;;;5.80;2.90;;;20.70;99.90;;;;;;5114424;28;20179;-83
2022/08/20 10:52:14;;;;;;;2.63;2.30;;;20.60;99.90;;;;;;5114038;28;20222;-83
2022/08/20 10:54:41;;;;;;;2.90;2.70;;;20.60;99.90;;;;;;5115191;28;20252;-83
2022/08/20 10:57:27;;;;;;;3.60;2.60;;;20.60;99.90;;;;;;5113655;28;20181;-84
2022/08/20 10:59:55;;;;;;;3.63;3.00;;;20.60;99.90;;;;;;5114895;28;20272;-83
2022/08/20 11:02:21;;;;;;;3.87;2.70;;;21.00;99.90;;;;;;5116169;28;20181;-82
2022/08/20 11:04:48;;;;;;;3.43;2.77;;;21.40;99.90;;;;;;5119059;28;20525;-83
2022/08/20 11:07:14;;;;;;;3.40;2.43;;;22.00;99.90;;;;;;5118800;28;20172;-81
2022/08/20 11:09:40;;;;;;;2.10;1.90;;;22.10;99.90;;;;;;5119202;28;20229;-82
2022/08/20 11:12:05;;;;;;;3.90;2.67;;;22.50;99.90;;;;;;5119003;28;20175;-83
2022/08/20 11:14:32;;;;;;;2.60;2.40;;;22.60;99.90;;;;;;5117399;28;20179;-83
2022/08/20 11:16:58;;;;;;;3.40;2.40;;;22.60;99.90;;;;;;5118604;28;20251;-81
2022/08/20 11:19:24;;;;;;;2.47;2.27;;;22.60;99.90;;;;;;5117136;28;20606;-82
2022/08/20 11:21:49;;;;;;;2.23;2.03;;;22.60;99.90;;;;;;5118648;28;20228;-82
2022/08/20 11:24:15;;;;;;;1.77;1.67;;;22.40;99.90;;;;;;5118721;28;20168;-84
2022/08/20 11:26:41;;;;;;;2.00;1.37;;;22.20;99.90;;;;;;5118378;28;20576;-82
2022/08/20 11:29:06;;;;;;;1.70;1.60;;;22.10;99.90;;;;;;5118637;28;20206;-84
2022/08/20 11:31:32;;;;;;;1.53;1.43;;;22.00;99.90;;;;;;5118005;28;20183;-80
2022/08/20 11:33:58;;;;;;;1.70;1.60;;;21.70;99.90;;;;;;5119060;28;20175;-82
2022/08/20 11:36:25;;;;;;;1.93;1.80;;;21.40;99.90;;;;;;5116929;28;20253;-83
2022/08/20 11:38:51;;;;;;;2.40;2.20;;;21.10;99.90;;;;;;5116438;28;20196;-82
2022/08/20 11:41:17;;;;;;;2.03;1.83;;;20.80;99.90;;;;;;5118799;28;20167;-84
2022/08/20 11:43:43;;;;;;;2.50;2.30;;;20.60;99.90;;;;;;5118542;28;20172;-84
2022/08/20 11:46:08;;;;;;;3.10;2.20;;;20.60;99.90;;;;;;5118316;28;20207;-82
2022/08/20 11:48:34;;;;;;;2.07;1.97;;;20.50;99.90;;;;;;5116639;28;20206;-82
2022/08/20 11:51:00;;;;;;;2.40;2.20;;;20.50;99.90;;;;;;5116911;28;20175;-84
2022/08/20 11:53:25;;;;;;;3.13;2.30;;;20.50;99.90;;;;;;5116812;28;20175;-81
2022/08/20 11:55:51;;;;;;;2.33;2.13;;;20.60;99.90;;;;;;5117021;28;20207;-82
2022/08/20 11:58:17;;;;;;;2.57;2.37;;;20.80;99.90;;;;;;5118208;28;20600;-84
2022/08/20 12:00:43;;;;;;;2.53;2.33;;;20.80;99.90;;;;;;5117806;28;20565;-82
2022/08/20 12:03:09;;;;;;;1.87;1.77;;;20.80;99.90;;;;;;5116610;28;20168;-82
2022/08/20 12:05:36;;;;;;;1.43;1.33;;;20.70;99.90;;;;;;5116316;28;20225;-83
2022/08/20 12:08:02;;;;;;;1.63;1.47;;;20.00;99.90;;;;;;5116345;28;20727;-83
2022/08/20 12:10:28;;;;;;;1.60;1.50;;;19.80;99.90;;;;;;5117251;28;20198;-84
2022/08/20 12:12:55;;;;;;;1.50;1.40;;;19.60;99.90;;;;;;5117863;28;20522;-80
2022/08/20 12:15:20;;;;;;;1.20;1.10;;;19.40;99.90;;;;;;5117003;28;20631;-82
2022/08/20 12:17:46;;;;;;;1.73;1.30;;;19.20;99.90;;;;;;5117483;28;20211;-82
2022/08/20 12:20:13;;;;;;;1.50;1.40;;;19.20;99.90;;;;;;5116666;28;20534;-82
2022/08/20 12:22:39;;;;;;;1.70;1.27;;;19.30;99.90;;;;;;5118771;28;20192;-84
2022/08/20 12:25:06;;;;;;;1.50;1.40;;;19.40;99.90;;;;;;5116821;28;20244;-84
2022/08/20 12:27:33;;;;;;;2.40;1.67;;;20.00;99.90;;;;;;5116381;28;20219;-83
2022/08/20 12:30:01;;;;;;;1.50;1.40;;;20.10;99.90;;;;;;5116891;28;20247;-83
2022/08/20 12:32:30;;;;;;;1.30;1.20;;;20.70;99.90;;;;;;5115765;28;20205;-82
2022/08/20 12:34:56;;;;;;;1.40;1.30;;;21.30;99.90;;;;;;5117085;28;20195;-82
2022/08/20 12:37:30;;;;;;;1.37;1.27;;;21.70;99.90;;;;;;5116734;28;20191;-82
2022/08/20 12:39:57;;;;;;;1.60;0.87;;;21.80;99.90;;;;;;5115982;28;20645;-82
2022/08/20 12:42:24;;;;;;;1.37;1.20;;;22.10;99.90;;;;;;5116788;28;20636;-82
2022/08/20 12:44:49;;;;;;;1.10;1.00;;;22.20;99.90;;;;;;5117301;28;20171;-83
2022/08/20 12:47:21;;;;;;;1.63;0.87;;;22.00;99.90;;;;;;5117063;28;20174;-81
2022/08/20 12:49:54;;;;;;;0.80;0.80;;;22.00;99.90;;;;;;5117411;28;20171;-83
2022/08/20 12:52:21;;;;;;;1.20;1.10;;;21.80;99.90;;;;;;5117354;28;20182;-83
2022/08/20 12:54:47;;;;;;;1.13;1.00;;;21.60;99.90;;;;;;5118156;28;20168;-83
2022/08/20 12:57:32;;;;;;;1.40;1.30;;;21.40;99.90;;;;;;5117197;28;20254;-83
2022/08/20 13:00:01;;;;;;;1.43;1.23;;;21.40;99.90;;;;;;5115313;28;20172;-81
2022/08/20 13:02:27;;;;;;;1.30;1.20;;;21.30;99.90;;;;;;5116300;28;20222;-82
2022/08/20 13:04:52;;;;;;;1.20;1.10;;;21.10;99.90;;;;;;5115240;28;20172;-83
2022/08/20 13:07:18;;;;;;;1.60;1.27;;;21.10;99.90;;;;;;5115539;28;20198;-83
2022/08/20 13:09:44;;;;;;;1.90;1.27;;;21.10;99.90;;;;;;5114963;28;20178;-82
2022/08/20 13:12:10;;;;;;;1.53;1.33;;;20.90;99.90;;;;;;5114917;28;20175;-84
2022/08/20 13:14:37;;;;;;;1.37;1.27;;;20.90;99.90;;;;;;5116100;28;20171;-83
2022/08/20 13:17:04;;;;;;;1.30;1.20;;;20.70;99.90;;;;;;5115082;28;20545;-84
2022/08/20 13:19:32;;;;;;;1.30;1.20;;;20.70;99.90;;;;;;5116052;28;20177;-82
2022/08/20 13:21:57;;;;;;;1.37;1.27;;;20.70;99.90;;;;;;5114730;28;20181;-83
2022/08/20 13:24:23;;;;;;;2.07;1.50;;;20.60;99.90;;;;;;5115820;28;20166;-82
2022/08/20 13:26:49;;;;;;;1.27;1.17;;;20.60;99.90;;;;;;5114941;28;20296;-82
2022/08/20 13:29:16;;;;;;;1.90;1.50;;;20.40;99.90;;;;;;5116308;28;20211;-82
2022/08/20 13:31:42;;;;;;;2.13;1.93;;;20.40;99.90;;;;;;5114764;28;20175;-85
2022/08/20 13:34:08;;;;;;;1.70;1.60;;;20.30;99.90;;;;;;5115883;28;20183;-83
2022/08/20 13:36:34;;;;;;;5.27;1.60;;;20.20;99.90;;;;;;5116646;28;20679;-84
2022/08/20 13:39:02;;;;;;;1.80;1.70;;;20.30;99.90;;;;;;5115512;28;20261;-83
2022/08/20 13:41:28;;;;;;;1.80;1.70;;;20.30;99.90;;;;;;5115978;28;20174;-84
2022/08/20 13:43:53;;;;;;;2.07;1.97;;;20.30;99.90;;;;;;5115916;28;20167;-84
2022/08/20 13:46:19;;;;;;;2.40;2.20;;;20.40;99.90;;;;;;5116166;28;20177;-83
2022/08/20 13:48:45;;;;;;;2.00;1.90;;;20.40;99.90;;;;;;5115264;28;20599;-84
2022/08/20 13:51:10;;;;;;;2.73;2.53;;;20.50;99.90;;;;;;5113803;28;20175;-83
2022/08/20 13:53:36;;;;;;;1.70;1.60;;;20.50;99.90;;;;;;5113766;28;20209;-83
2022/08/20 13:56:02;;;;;;;1.60;0.90;;;20.10;99.90;;;;;;5116103;28;20213;-83
2022/08/20 13:58:28;;;;;;;1.77;0.90;;;19.40;99.90;;;;;;5114341;28;20215;-82
2022/08/20 14:00:54;;;;;;;1.73;0.87;;;19.00;99.90;;;;;;5114224;28;20180;-82
2022/08/20 14:03:19;;;;;;;0.80;0.80;;;18.60;99.90;;;;;;5114446;28;20572;-82
2022/08/20 14:05:45;;;;;;;1.00;0.80;;;18.30;99.90;;;;;;5114826;28;20261;-83
2022/08/20 14:08:21;;;;;;;0.90;0.90;;;18.00;99.90;;;;;;5115275;28;20280;-81
2022/08/20 14:10:49;;;;;;;1.27;0.93;;;17.90;99.90;;;;;;5116413;28;20195;-83
2022/08/20 14:13:16;;;;;;;3.23;0.90;;;17.70;99.90;;;;;;5116041;28;20647;-82
2022/08/20 14:15:43;;;;;;;1.87;1.63;;;17.60;99.90;;;;;;5116019;28;20266;-81
2022/08/20 14:18:08;;;;;;;2.87;2.10;;;17.50;99.90;;;;;;5113774;28;20193;-82
2022/08/20 14:20:34;;;;;;;6.40;2.53;;;17.40;99.90;;;;;;5113625;28;20195;-82
2022/08/20 14:23:01;;;;;;;3.07;2.77;;;17.40;99.90;;;;;;5116249;28;20177;-82
2022/08/20 14:25:27;;;;;;;3.77;2.73;;;17.40;99.90;;;;;;5115099;28;20178;-83
2022/08/20 14:27:54;;;;;;;3.47;2.67;;;17.40;99.90;;;;;;5116097;28;20202;-82
2022/08/20 14:30:26;;;;;;;5.50;2.97;;;17.50;99.90;;;;;;5116219;28;20642;-82
2022/08/20 14:32:52;;;;;;;5.00;3.10;;;17.40;99.90;;;;;;5114509;28;20177;-83
2022/08/20 14:35:18;;;;;;;3.90;3.33;;;17.40;99.90;;;;;;5115935;28;20592;-83
2022/08/20 14:37:47;;;;;;;5.37;3.80;;;17.40;99.90;;;;;;5118807;28;20188;-83
2022/08/20 14:40:15;;;;;;;4.07;3.50;;;17.40;99.90;;;;;;5121319;28;20172;-83
2022/08/20 14:42:41;;;;;;;3.40;3.00;;;17.40;99.90;;;;;;5121905;28;20165;-83
2022/08/20 14:45:10;;;;;;;5.00;3.47;;;17.40;99.90;;;;;;5122232;28;20177;-83
2022/08/20 14:47:45;;;;;;;3.47;2.63;;;17.50;99.90;;;;;;5122438;28;20200;-82
2022/08/20 14:50:17;;;;;;;3.43;3.13;;;17.50;99.90;;;;;;5119912;28;20202;-82
2022/08/20 14:52:43;;;;;;;2.37;2.17;;;17.60;99.90;;;;;;5118684;28;20187;-83
2022/08/20 14:55:16;;;;;;;2.90;2.50;;;17.60;99.90;;;;;;5118307;28;20195;-84
2022/08/20 14:57:42;;;;;;;4.07;2.57;;;17.50;99.90;;;;;;5118670;28;20264;-83
2022/08/20 15:00:11;;;;;;;4.03;2.33;;;17.60;99.90;;;;;;5118999;28;20179;-83
2022/08/20 15:02:38;;;;;;;4.13;2.40;;;17.50;99.90;;;;;;5117896;28;20176;-82
2022/08/20 15:05:05;;;;;;;3.43;2.63;;;17.50;99.90;;;;;;5119019;28;20253;-84
2022/08/20 15:07:35;;;;;;;2.73;2.53;;;17.50;99.90;;;;;;5118671;28;20242;-83
2022/08/20 15:10:04;;;;;;;5.63;2.93;;;17.50;99.90;;;;;;5118329;27;20182;-83
2022/08/20 15:12:30;;;;;;;6.17;4.27;;;17.60;99.90;;;;;;5117490;28;20190;-83
2022/08/20 15:14:56;;;;;;;2.60;2.40;;;17.60;99.90;;;;;;5118588;28;20184;-85
2022/08/20 15:17:24;;;;;;;2.77;2.20;;;17.70;99.90;;;;;;5116959;28;20179;-84
2022/08/20 15:19:51;;;;;;;2.57;1.70;;;17.70;99.90;;;;;;5118158;28;20173;-84
2022/08/20 15:22:17;;;;;;;1.60;1.50;;;17.70;99.90;;;;;;5117177;28;20173;-84
2022/08/20 15:24:43;;;;;;;1.87;1.77;;;17.80;99.90;;;;;;5116731;28;20177;-84
2022/08/20 15:27:14;;;;;;;2.57;1.30;;;17.70;99.90;;;;;;5117735;28;20173;-84
2022/08/20 15:29:40;;;;;;;2.90;1.20;;;17.80;99.90;;;;;;5116662;28;20181;-84
2022/08/20 15:32:07;;;;;;;3.70;1.50;;;;;;;;;;5117044;28;20199;-84
2022/08/20 15:34:36;;;;;;;1.67;1.50;;;17.80;99.90;;;;;;5117808;28;20660;-84
2022/08/20 15:37:10;;;;;;;1.37;1.27;;;17.80;99.90;;;;;;5116145;28;20205;-84
2022/08/20 15:39:35;;;;;;;6.40;5.70;;;17.90;99.90;;;;;;5117758;28;20174;-84
2022/08/20 15:42:02;;;;;;;1.83;1.73;;;17.90;99.90;;;;;;5117085;28;20704;-83
2022/08/20 15:44:28;;;;;;;1.40;1.10;;;17.80;99.90;;;;;;5116496;28;20180;-84
2022/08/20 15:46:53;;;;;;;2.23;1.40;;;17.80;99.90;;;;;;5116357;28;20642;-84
2022/08/20 15:49:20;;;;;;;1.40;1.30;;;;;;;;;;5115686;28;20247;-84
2022/08/20 15:51:47;;;;;;;2.03;1.80;;;17.80;99.90;;;;;;5116418;28;20200;-84
2022/08/20 15:54:18;;;;;;;1.57;1.30;;;17.80;99.90;;;;;;5117341;28;20201;-84
2022/08/20 15:56:57;;;;;;;1.60;1.50;;;17.80;99.90;;;;;;5117060;28;20549;-83
2022/08/20 15:59:41;;;;;;;1.60;1.50;;;17.80;99.90;;;;;;5117102;28;20217;-83
2022/08/20 16:02:34;;;;;;;1.60;1.50;;;17.90;99.90;;;;;;5118451;28;20172;-83
2022/08/20 16:05:37;;;;;;;1.37;1.23;;;17.80;99.90;;;;;;5118989;28;20345;-83
2022/08/20 16:08:18;;;;;;;2.53;1.50;;;17.80;99.90;;;;;;5118493;28;20300;-83
2022/08/20 16:11:09;;;;;;;2.23;1.63;;;17.80;99.90;;;;;;5119088;28;20177;-83
2022/08/20 16:13:44;;;;;;;1.70;1.60;;;17.80;99.90;;;;;;5117234;28;20634;-83
2022/08/20 16:16:16;;;;;;;1.90;1.70;;;17.80;99.90;;;;;;5116728;28;20222;-81
2022/08/20 16:18:46;;;;;;;2.00;1.77;;;17.80;99.90;;;;;;5117306;28;20271;-83
2022/08/20 16:21:15;;;;;;;3.93;1.93;;;17.80;99.90;;;;;;5115727;28;20184;-83
2022/08/20 16:23:42;;;;;;;1.53;1.43;;;17.90;99.90;;;;;;5116005;28;20176;-83
2022/08/20 16:26:38;;;;;;;2.67;2.00;;;18.00;99.90;;;;;;5116024;28;20176;-83
2022/08/20 16:29:35;;;;;;;1.87;1.60;;;18.00;99.90;;;;;;5115543;28;20198;-83
2022/08/20 16:32:19;;;;;;;2.03;1.90;;;18.00;99.90;;;;;;5117261;28;20172;-82
2022/08/20 16:35:28;;;;;;;2.13;1.77;;;18.00;99.90;;;;;;5115713;28;20175;-83
2022/08/20 16:38:13;;;;;;;1.83;1.70;;;18.20;99.90;;;;;;5075016;28;20206;-83
2022/08/20 16:40:49;;;;;;;1.80;1.70;;;18.20;99.90;;;;;;5057372;28;20177;-83
2022/08/20 16:43:43;;;;;;;1.53;1.43;;;18.20;99.90;;;;;;5095063;28;20176;-83
2022/08/20 16:46:19;;;;;;;1.60;1.50;;;18.20;99.90;;;;;;5114322;28;20184;-83
2022/08/20 16:48:57;;;;;;;2.30;1.53;;;18.20;99.90;;;;;;5114963;28;20202;-83
2022/08/20 16:51:43;;;;;;;1.40;1.30;;;18.20;99.90;;;;;;5115345;28;20641;-83
2022/08/20 16:54:10;;;;;;;3.90;1.50;;;18.20;99.90;;;;;;5115327;28;20184;-83
2022/08/20 16:56:40;;;;;;;1.40;1.30;;;18.10;99.90;;;;;;5115135;28;20205;-83
2022/08/20 16:59:10;;;;;;;1.63;1.47;;;18.10;99.90;;;;;;5114626;28;20197;-81
2022/08/20 17:01:37;;;;;;;2.10;1.67;;;18.10;99.90;;;;;;5115193;28;20703;-84
2022/08/20 17:04:05;;;;;;;2.07;1.70;;;18.10;99.90;;;;;;5116495;28;20174;-85
2022/08/20 17:06:38;;;;;;;5.37;1.73;;;18.00;99.90;;;;;;5116460;28;20597;-84
2022/08/20 17:09:07;;;;;;;2.13;1.90;;;18.00;99.90;;;;;;5116009;28;20192;-85
2022/08/20 17:11:33;;;;;;;1.77;1.47;;;17.90;99.90;;;;;;5116495;28;20169;-83
2022/08/20 17:14:15;;;;;;;1.43;1.33;;;17.90;99.90;;;;;;5115646;28;20178;-82
2022/08/20 17:16:50;;;;;;;1.33;1.23;;;17.90;99.90;;;;;;5116717;28;20204;-83
2022/08/20 17:19:30;;;;;;;1.23;1.13;;;17.90;99.90;;;;;;5116734;28;20728;-83
2022/08/20 17:22:08;;;;;;;1.70;1.17;;;17.80;99.90;;;;;;5116591;28;20527;-83
2022/08/20 17:24:36;;;;;;;1.47;1.10;;;17.70;99.90;;;;;;5117163;28;20221;-82
2022/08/20 17:27:12;;;;;;;1.13;1.00;;;17.60;99.90;;;;;;5116576;28;20170;-83
2022/08/20 17:29:49;;;;;;;1.80;0.90;;;17.60;99.90;;;;;;5116066;28;20211;-84
2022/08/20 17:32:20;;;;;;;1.40;1.10;;;17.50;99.90;;;;;;5115397;28;20208;-82
2022/08/20 17:34:49;;;;;;;1.30;1.20;;;17.60;99.90;;;;;;5115966;28;20172;-83
2022/08/20 17:37:24;;;;;;;1.40;1.30;;;17.60;99.90;;;;;;5116811;28;20205;-84
2022/08/20 17:39:54;;;;;;;1.20;1.03;;;17.60;99.90;;;;;;5116848;28;20597;-83
2022/08/20 17:42:23;;;;;;;1.20;1.10;;;17.50;99.90;;;;;;5116896;28;20174;-83
2022/08/20 17:45:03;;;;;;;1.27;0.97;;;17.40;99.90;;;;;;5116858;28;20168;-82
2022/08/20 17:47:35;;;;;;;1.00;1.00;;;17.30;99.90;;;;;;5115259;28;20248;-83
2022/08/20 17:50:12;;;;;;;2.37;0.97;;;17.30;99.90;;;;;;5117403;28;20178;-83
2022/08/20 17:52:53;;;;;;;1.10;1.00;;;17.20;99.90;;;;;;5115776;28;20632;-82
2022/08/20 17:55:19;;;;;;;1.17;1.07;;;17.30;99.90;;;;;;5116135;28;20220;-84
2022/08/20 17:57:48;;;;;;;1.07;0.97;;;17.20;99.90;;;;;;5116670;28;20550;-83
2022/08/20 18:00:27;;;;;;;2.37;1.37;;;17.20;99.90;;;;;;5116241;28;20240;-84
2022/08/20 18:03:16;;;;;;;1.33;1.20;;;17.10;99.90;;;;;;5117213;28;20164;-84
2022/08/20 18:05:43;;;;;;;1.50;1.10;;;17.10;99.90;;;;;;5116745;28;20201;-81
2022/08/20 18:08:15;;;;;;;1.87;1.00;;;17.00;99.90;;;;;;5116710;28;20188;-83
2022/08/20 18:11:28;;;;;;;2.13;1.20;;;17.00;99.90;;;;;;5117236;28;20179;-83
2022/08/20 18:14:15;;;;;;;1.30;1.20;;;17.00;99.90;;;;;;5113528;28;20191;-84
2022/08/20 18:16:48;;;;;;;5.47;1.40;;;17.00;99.90;;;;;;5117993;28;20207;-83
2022/08/20 18:19:40;;;;;;;2.03;1.80;;;16.90;99.90;;;;;;5117438;28;20187;-84
2022/08/20 18:22:15;;;;;;;3.43;1.80;;;16.90;99.90;;;;;;5117628;28;20540;-83
2022/08/20 18:25:05;;;;;;;3.03;2.00;;;16.90;99.90;;;;;;5116221;28;20175;-83
2022/08/20 18:27:45;;;;;;;2.63;2.33;;;16.90;99.90;;;;;;5117016;28;20207;-84
2022/08/20 18:30:22;;;;;;;1.70;1.60;;;16.80;99.90;;;;;;5117515;28;20177;-83
2022/08/20 18:32:58;;;;;;;2.00;1.70;;;16.80;99.90;;;;;;5116462;28;20171;-83
2022/08/20 18:35:36;;;;;;;1.83;1.37;;;16.70;99.90;;;;;;5116537;28;20687;-83
2022/08/20 18:38:22;;;;;;;2.83;1.47;;;16.60;99.90;;;;;;5117636;28;20266;-82
2022/08/20 18:40:48;;;;;;;1.40;1.30;;;16.60;99.90;;;;;;5117785;28;20168;-82
2022/08/20 18:43:26;;;;;;;2.27;1.30;;;16.60;99.90;;;;;;5115802;28;20581;-83
2022/08/20 18:45:52;;;;;;;1.57;1.47;;;16.50;99.90;;;;;;5116255;28;20176;-83
2022/08/20 18:48:23;;;;;;;4.60;1.07;;;16.50;99.90;;;;;;5116415;28;20724;-83
2022/08/20 18:50:53;;;;;;;1.50;1.20;;;16.50;99.90;;;;;;5116660;28;20224;-83
2022/08/20 18:53:31;;;;;;;3.93;1.50;;;16.50;99.90;;;;;;5116333;28;20187;-83
2022/08/20 18:56:05;;;;;;;1.30;1.20;;;16.40;99.90;;;;;;5116420;28;20238;-84
2022/08/20 18:58:58;;;;;;;1.40;1.30;;;16.50;99.90;;;;;;5116886;28;20284;-83
2022/08/20 19:01:24;;;;;;;5.20;1.30;;;16.40;99.90;;;;;;5115640;28;20176;-83
2022/08/20 19:03:52;;;;;;;1.30;1.20;;;16.50;99.90;;;;;;5117084;28;20223;-84
2022/08/20 19:06:34;;;;;;;1.40;1.10;;;16.40;99.90;;;;;;5115730;28;20175;-84
2022/08/20 19:09:14;;;;;;;1.97;1.30;;;16.40;99.90;;;;;;5117085;28;20195;-84
2022/08/20 19:11:59;;;;;;;2.00;1.73;;;16.40;99.90;;;;;;5116102;28;20172;-83
2022/08/20 19:14:48;;;;;;;1.20;1.10;;;16.40;99.90;;;;;;5117653;28;20666;-84
2022/08/20 19:17:19;;;;;;;1.40;1.20;;;16.40;99.90;;;;;;5117737;28;20254;-84
2022/08/20 19:19:45;;;;;;;1.60;1.50;;;16.40;99.90;;;;;;5116839;28;20698;-84
2022/08/20 19:22:18;;;;;;;2.17;1.40;;;16.40;99.90;;;;;;5116853;28;20633;-84